Impacts TAF Board
For situational awareness. Not to be used for flight planning purposes.
IDs:

KGUY - Guymon Muni, OK, US

Issued at 1720 UTC 02 Aug 2021
Updated at 2200 UTC 02 Aug 2021
Potential Impact None Slight Moderate High
Time2153Z 02/22Z 02/23Z 03/00Z 03/01Z 03/02Z 03/03Z 03/04Z 03/05Z 03/06Z 03/07Z 03/08Z 03/09Z 03/10Z>>
Type OBS PRVL PRVL PRVL PRVL PRVL PRVL PRVL PRVL PRVL PRVL PRVL PRVL PRVL
VIS 10 6 6 6 6 6 6 6 6 6 6 6 >6 >6
CIG -- -- -- -- -- -- -- -- -- -- -- -- 200 --
Cover CLR FEW FEW FEW FEW FEW FEW FEW FEW FEW FEW FEW BKN SCT
FltCat VFR VFR VFR VFR VFR VFR VFR VFR VFR VFR VFR VFR VFR VFR
WX -- HZ HZ HZ HZ HZ HZ HZ HZ HZ HZ HZ -- --
WDir VRB VRB VRB VRB VRB VRB VRB VRB VRB VRB VRB VRB 200 210
WSpd 3 4 4 4 4 4 4 4 4 4 4 4 5 5
WGst -- -- -- -- -- -- -- -- -- -- -- -- -- --
Raw TAF
KGUY 021720Z 0218/0318 VRB04KT 6SM HZ FEW250
  FM030900 20005KT P6SM BKN200
  FM031000 21005KT P6SM SCT200


Raw METAR
KGUY 022153Z AUTO VRB03KT 10SM CLR 29/09 A3017 RMK AO2 SLP172 T02890089
KGUY 022053Z AUTO VRB03KT 10SM CLR 28/10 A3019 RMK AO2 SLP179 T02830100 58021
KGUY 021953Z AUTO 14007KT 10SM CLR 28/11 A3021 RMK AO2 SLP187 T02830106
KGUY 021853Z AUTO VRB06KT 10SM CLR 28/12 A3024 RMK AO2 SLP195 T02830117

METAR Board
Radar Display
Forecast Discussion
For situational awareness. Not to be used for flight planning purposes.